Terminal Aerodrome Forecast
Issued by NWS

Current Version | Previous Version | Text Only | Print | Product List | Glossary On
Versions: 1 2 3 4 5 6 7 8 9 10 11 12
000
FTUS42 KTAE 202300
TAFECP
TAF
KECP 202332Z 2100/2124 03006KT P6SM -SHRA OVC030
     FM210900 08007KT P6SM OVC008
     FM211800 08006KT 6SM -RA OVC020=

USA.gov is the U.S. government's official web portal to all federal, state and local government web resources and services.